sensor_id;sensor_type;location;lat;lon;timestamp;pressure;altitude;pressure_sealevel;temperature;humidity
47366;BME280;33105;47.964;7.982;2022-09-16T00:00:35;96242.88;;;13.35;95.69
47366;BME280;33105;47.964;7.982;2022-09-16T00:03:36;96246.78;;;13.29;95.72
47366;BME280;33105;47.964;7.982;2022-09-16T00:06:38;96249.75;;;13.33;95.76
47366;BME280;33105;47.964;7.982;2022-09-16T00:09:39;96241.66;;;13.17;94.92
47366;BME280;33105;47.964;7.982;2022-09-16T00:12:41;96242.97;;;13.25;96.11
47366;BME280;33105;47.964;7.982;2022-09-16T00:15:47;96244.59;;;13.26;95.87
47366;BME280;33105;47.964;7.982;2022-09-16T00:18:52;96242.16;;;13.24;95.97
47366;BME280;33105;47.964;7.982;2022-09-16T00:21:54;96244.06;;;13.24;95.58
47366;BME280;33105;47.964;7.982;2022-09-16T00:24:55;96244.66;;;13.21;95.93
47366;BME280;33105;47.964;7.982;2022-09-16T00:27:56;96240.84;;;13.17;95.61
47366;BME280;33105;47.964;7.982;2022-09-16T00:31:01;96238.66;;;13.14;95.88
47366;BME280;33105;47.964;7.982;2022-09-16T00:34:03;96239.75;;;13.13;95.82
47366;BME280;33105;47.964;7.982;2022-09-16T00:37:05;96243.94;;;13.10;95.99
47366;BME280;33105;47.964;7.982;2022-09-16T00:40:09;96252.78;;;13.02;95.41
47366;BME280;33105;47.964;7.982;2022-09-16T00:43:16;96258.22;;;13.07;95.94
47366;BME280;33105;47.964;7.982;2022-09-16T00:46:22;96249.19;;;13.07;95.95
47366;BME280;33105;47.964;7.982;2022-09-16T00:49:28;96256.38;;;12.98;95.59
47366;BME280;33105;47.964;7.982;2022-09-16T00:52:31;96259.31;;;13.06;96.33
47366;BME280;33105;47.964;7.982;2022-09-16T00:55:34;96254.22;;;12.94;95.71
47366;BME280;33105;47.964;7.982;2022-09-16T00:58:47;96245.22;;;12.89;95.81
47366;BME280;33105;47.964;7.982;2022-09-16T01:01:50;96253.16;;;12.90;95.81
47366;BME280;33105;47.964;7.982;2022-09-16T01:05:07;96251.00;;;12.87;95.96
47366;BME280;33105;47.964;7.982;2022-09-16T01:08:12;96251.72;;;12.69;95.53
47366;BME280;33105;47.964;7.982;2022-09-16T01:11:13;96243.44;;;12.74;95.76
47366;BME280;33105;47.964;7.982;2022-09-16T01:14:15;96248.38;;;12.77;95.96
47366;BME280;33105;47.964;7.982;2022-09-16T01:24:32;96234.31;;;12.55;95.91
47366;BME280;33105;47.964;7.982;2022-09-16T01:27:48;96235.91;;;12.61;95.92
47366;BME280;33105;47.964;7.982;2022-09-16T01:34:21;96229.78;;;12.69;95.91
47366;BME280;33105;47.964;7.982;2022-09-16T01:41:08;96231.53;;;12.60;95.66
47366;BME280;33105;47.964;7.982;2022-09-16T01:44:22;96236.31;;;12.44;95.14
47366;BME280;33105;47.964;7.982;2022-09-16T01:47:37;96233.38;;;12.65;95.95
47366;BME280;33105;47.964;7.982;2022-09-16T01:50:57;96232.00;;;12.67;95.99
47366;BME280;33105;47.964;7.982;2022-09-16T01:57:18;96235.75;;;12.76;95.74
47366;BME280;33105;47.964;7.982;2022-09-16T02:00:21;96232.16;;;12.81;95.73
47366;BME280;33105;47.964;7.982;2022-09-16T02:03:28;96229.66;;;12.84;95.99
47366;BME280;33105;47.964;7.982;2022-09-16T02:06:30;96231.59;;;12.84;95.87
47366;BME280;33105;47.964;7.982;2022-09-16T02:09:36;96237.88;;;12.84;96.22
47366;BME280;33105;47.964;7.982;2022-09-16T02:12:40;96229.94;;;12.83;96.04
47366;BME280;33105;47.964;7.982;2022-09-16T02:15:47;96229.06;;;12.87;96.10
47366;BME280;33105;47.964;7.982;2022-09-16T02:18:53;96226.91;;;12.84;95.91
47366;BME280;33105;47.964;7.982;2022-09-16T02:21:56;96229.00;;;12.92;96.32
47366;BME280;33105;47.964;7.982;2022-09-16T02:25:02;96230.25;;;12.81;95.52
47366;BME280;33105;47.964;7.982;2022-09-16T02:28:08;96222.25;;;12.85;95.83
47366;BME280;33105;47.964;7.982;2022-09-16T02:31:14;96223.00;;;12.90;96.24
47366;BME280;33105;47.964;7.982;2022-09-16T02:34:24;96219.72;;;12.88;95.88
47366;BME280;33105;47.964;7.982;2022-09-16T02:37:52;96222.59;;;12.78;95.40
47366;BME280;33105;47.964;7.982;2022-09-16T02:40:57;96220.34;;;12.85;96.26
47366;BME280;33105;47.964;7.982;2022-09-16T02:44:00;96213.44;;;12.88;96.12
47366;BME280;33105;47.964;7.982;2022-09-16T02:47:16;96220.13;;;12.77;95.17
47366;BME280;33105;47.964;7.982;2022-09-16T02:56:45;96210.53;;;12.79;96.23
47366;BME280;33105;47.964;7.982;2022-09-16T02:59:46;96210.00;;;12.77;96.06
47366;BME280;33105;47.964;7.982;2022-09-16T03:02:48;96193.78;;;12.81;96.02
47366;BME280;33105;47.964;7.982;2022-09-16T03:06:20;96189.22;;;12.71;95.65
47366;BME280;33105;47.964;7.982;2022-09-16T03:09:22;96191.03;;;12.81;95.87
47366;BME280;33105;47.964;7.982;2022-09-16T03:12:30;96191.56;;;12.83;96.04
47366;BME280;33105;47.964;7.982;2022-09-16T03:18:51;96184.69;;;12.85;95.87
47366;BME280;33105;47.964;7.982;2022-09-16T03:22:07;96172.44;;;12.78;96.10
47366;BME280;33105;47.964;7.982;2022-09-16T03:25:26;96169.94;;;12.81;95.68
47366;BME280;33105;47.964;7.982;2022-09-16T03:32:05;96165.72;;;12.36;94.92
47366;BME280;33105;47.964;7.982;2022-09-16T03:35:17;96173.38;;;12.63;95.97
47366;BME280;33105;47.964;7.982;2022-09-16T03:38:19;96168.91;;;12.72;96.12
47366;BME280;33105;47.964;7.982;2022-09-16T03:41:21;96163.47;;;12.67;95.41
47366;BME280;33105;47.964;7.982;2022-09-16T03:44:30;96164.50;;;12.76;95.90
47366;BME280;33105;47.964;7.982;2022-09-16T03:47:32;96165.06;;;12.73;95.82
47366;BME280;33105;47.964;7.982;2022-09-16T03:50:33;96165.84;;;12.79;96.03
47366;BME280;33105;47.964;7.982;2022-09-16T03:53:35;96164.13;;;12.59;95.75
47366;BME280;33105;47.964;7.982;2022-09-16T03:56:36;96168.38;;;12.70;96.08
47366;BME280;33105;47.964;7.982;2022-09-16T03:59:37;96168.44;;;12.65;95.91
47366;BME280;33105;47.964;7.982;2022-09-16T04:02:38;96168.44;;;12.65;96.23
47366;BME280;33105;47.964;7.982;2022-09-16T04:05:40;96163.16;;;12.74;96.41
47366;BME280;33105;47.964;7.982;2022-09-16T04:08:41;96160.88;;;12.57;96.50
47366;BME280;33105;47.964;7.982;2022-09-16T04:11:44;96147.69;;;12.59;96.96
47366;BME280;33105;47.964;7.982;2022-09-16T04:14:45;96151.19;;;12.65;96.92
47366;BME280;33105;47.964;7.982;2022-09-16T04:17:46;96158.56;;;12.64;96.90
47366;BME280;33105;47.964;7.982;2022-09-16T04:20:47;96156.59;;;12.70;96.99
47366;BME280;33105;47.964;7.982;2022-09-16T04:23:49;96147.00;;;12.72;96.70
47366;BME280;33105;47.964;7.982;2022-09-16T04:26:50;96145.34;;;12.71;97.10
47366;BME280;33105;47.964;7.982;2022-09-16T04:29:51;96142.66;;;12.66;96.94
47366;BME280;33105;47.964;7.982;2022-09-16T04:32:54;96153.00;;;12.74;97.03
47366;BME280;33105;47.964;7.982;2022-09-16T04:36:12;96140.16;;;12.70;96.58
47366;BME280;33105;47.964;7.982;2022-09-16T04:39:13;96139.53;;;12.54;96.66
47366;BME280;33105;47.964;7.982;2022-09-16T04:42:15;96145.00;;;12.54;97.06
47366;BME280;33105;47.964;7.982;2022-09-16T04:45:16;96147.56;;;12.69;97.31
47366;BME280;33105;47.964;7.982;2022-09-16T04:48:17;96145.56;;;12.51;96.86
47366;BME280;33105;47.964;7.982;2022-09-16T04:51:20;96153.88;;;12.41;97.03
47366;BME280;33105;47.964;7.982;2022-09-16T04:54:22;96150.81;;;12.47;97.28
47366;BME280;33105;47.964;7.982;2022-09-16T04:57:23;96155.09;;;12.58;97.27
47366;BME280;33105;47.964;7.982;2022-09-16T05:00:24;96142.78;;;12.56;97.04
47366;BME280;33105;47.964;7.982;2022-09-16T05:03:26;96139.94;;;12.66;97.25
47366;BME280;33105;47.964;7.982;2022-09-16T05:06:35;96150.84;;;12.71;97.19
47366;BME280;33105;47.964;7.982;2022-09-16T05:09:36;96149.91;;;12.57;97.04
47366;BME280;33105;47.964;7.982;2022-09-16T05:12:37;96154.69;;;12.70;97.31
47366;BME280;33105;47.964;7.982;2022-09-16T05:15:39;96155.47;;;12.76;97.29
47366;BME280;33105;47.964;7.982;2022-09-16T05:18:41;96157.44;;;12.70;96.95
47366;BME280;33105;47.964;7.982;2022-09-16T05:21:43;96162.53;;;12.53;96.66
47366;BME280;33105;47.964;7.982;2022-09-16T05:24:44;96157.25;;;12.62;97.16
47366;BME280;33105;47.964;7.982;2022-09-16T05:27:46;96157.44;;;12.70;97.17
47366;BME280;33105;47.964;7.982;2022-09-16T05:30:47;96155.25;;;12.67;97.17
47366;BME280;33105;47.964;7.982;2022-09-16T05:34:03;96151.41;;;12.68;97.02
47366;BME280;33105;47.964;7.982;2022-09-16T05:37:04;96160.13;;;12.75;97.23
47366;BME280;33105;47.964;7.982;2022-09-16T05:40:06;96157.34;;;12.80;97.01
47366;BME280;33105;47.964;7.982;2022-09-16T05:43:08;96155.66;;;12.84;96.75
47366;BME280;33105;47.964;7.982;2022-09-16T05:46:15;96162.16;;;12.88;96.96
47366;BME280;33105;47.964;7.982;2022-09-16T05:49:17;96158.53;;;12.93;97.00
47366;BME280;33105;47.964;7.982;2022-09-16T05:52:20;96159.38;;;12.93;97.17
47366;BME280;33105;47.964;7.982;2022-09-16T05:55:21;96166.00;;;12.87;96.91
47366;BME280;33105;47.964;7.982;2022-09-16T05:58:23;96159.91;;;12.95;97.01
47366;BME280;33105;47.964;7.982;2022-09-16T06:01:28;96166.47;;;12.94;96.90
47366;BME280;33105;47.964;7.982;2022-09-16T06:04:29;96168.69;;;12.69;96.96
47366;BME280;33105;47.964;7.982;2022-09-16T06:07:31;96174.31;;;12.82;97.20
47366;BME280;33105;47.964;7.982;2022-09-16T06:10:37;96167.19;;;12.81;97.20
47366;BME280;33105;47.964;7.982;2022-09-16T06:13:38;96167.59;;;12.93;97.27
47366;BME280;33105;47.964;7.982;2022-09-16T06:16:40;96172.53;;;12.91;97.21
47366;BME280;33105;47.964;7.982;2022-09-16T06:19:41;96172.31;;;12.88;97.08
47366;BME280;33105;47.964;7.982;2022-09-16T06:22:43;96166.53;;;12.89;97.44
47366;BME280;33105;47.964;7.982;2022-09-16T06:25:44;96165.38;;;12.95;97.46
47366;BME280;33105;47.964;7.982;2022-09-16T06:28:46;96165.91;;;12.98;97.20
47366;BME280;33105;47.964;7.982;2022-09-16T06:31:47;96172.72;;;13.00;97.25
47366;BME280;33105;47.964;7.982;2022-09-16T06:34:49;96170.81;;;13.01;97.31
47366;BME280;33105;47.964;7.982;2022-09-16T06:37:50;96156.22;;;13.05;97.13
47366;BME280;33105;47.964;7.982;2022-09-16T06:40:51;96157.50;;;13.13;97.18
47366;BME280;33105;47.964;7.982;2022-09-16T06:43:52;96161.88;;;13.14;97.06
47366;BME280;33105;47.964;7.982;2022-09-16T06:46:53;96159.69;;;13.16;97.33
47366;BME280;33105;47.964;7.982;2022-09-16T06:49:55;96163.78;;;13.13;97.30
47366;BME280;33105;47.964;7.982;2022-09-16T06:52:56;96164.28;;;13.20;97.41
47366;BME280;33105;47.964;7.982;2022-09-16T06:56:03;96166.75;;;13.22;97.09
47366;BME280;33105;47.964;7.982;2022-09-16T06:59:05;96170.00;;;13.24;97.24
47366;BME280;33105;47.964;7.982;2022-09-16T07:02:08;96160.09;;;13.28;97.44
47366;BME280;33105;47.964;7.982;2022-09-16T07:05:09;96175.91;;;13.36;97.62
47366;BME280;33105;47.964;7.982;2022-09-16T07:08:12;96167.91;;;13.16;96.66
47366;BME280;33105;47.964;7.982;2022-09-16T07:11:14;96182.97;;;13.18;97.08
47366;BME280;33105;47.964;7.982;2022-09-16T07:14:15;96186.53;;;13.19;97.24
47366;BME280;33105;47.964;7.982;2022-09-16T07:17:16;96184.84;;;12.94;96.87
47366;BME280;33105;47.964;7.982;2022-09-16T07:20:17;96171.72;;;13.15;97.32
47366;BME280;33105;47.964;7.982;2022-09-16T07:23:19;96178.41;;;13.33;97.49
47366;BME280;33105;47.964;7.982;2022-09-16T07:26:22;96180.84;;;13.10;96.57
47366;BME280;33105;47.964;7.982;2022-09-16T07:29:26;96174.56;;;13.10;96.82
47366;BME280;33105;47.964;7.982;2022-09-16T07:32:27;96173.06;;;13.22;96.91
47366;BME280;33105;47.964;7.982;2022-09-16T07:35:28;96167.91;;;13.16;96.33
47366;BME280;33105;47.964;7.982;2022-09-16T07:38:30;96177.78;;;13.17;96.88
47366;BME280;33105;47.964;7.982;2022-09-16T07:41:33;96178.78;;;12.97;95.56
47366;BME280;33105;47.964;7.982;2022-09-16T07:44:35;96187.28;;;13.24;97.34
47366;BME280;33105;47.964;7.982;2022-09-16T07:47:36;96184.50;;;13.30;97.27
47366;BME280;33105;47.964;7.982;2022-09-16T07:50:37;96200.00;;;13.15;97.51
47366;BME280;33105;47.964;7.982;2022-09-16T07:53:38;96206.50;;;12.95;97.43
47366;BME280;33105;47.964;7.982;2022-09-16T07:56:40;96209.69;;;13.08;97.56
47366;BME280;33105;47.964;7.982;2022-09-16T07:59:42;96217.22;;;12.92;97.72
47366;BME280;33105;47.964;7.982;2022-09-16T08:02:43;96218.25;;;12.72;97.28
47366;BME280;33105;47.964;7.982;2022-09-16T08:05:45;96224.50;;;12.49;97.22
47366;BME280;33105;47.964;7.982;2022-09-16T08:08:46;96223.88;;;12.57;97.49
47366;BME280;33105;47.964;7.982;2022-09-16T08:11:48;96230.72;;;12.25;97.50
47366;BME280;33105;47.964;7.982;2022-09-16T08:14:50;96235.25;;;12.40;97.93
47366;BME280;33105;47.964;7.982;2022-09-16T08:17:51;96231.94;;;12.43;97.35
47366;BME280;33105;47.964;7.982;2022-09-16T08:20:52;96236.13;;;12.36;97.40
47366;BME280;33105;47.964;7.982;2022-09-16T08:23:54;96255.63;;;12.24;97.47
47366;BME280;33105;47.964;7.982;2022-09-16T08:26:55;96253.34;;;11.97;96.75
47366;BME280;33105;47.964;7.982;2022-09-16T08:29:56;96264.69;;;12.19;97.98
47366;BME280;33105;47.964;7.982;2022-09-16T08:32:58;96261.34;;;12.33;97.94
47366;BME280;33105;47.964;7.982;2022-09-16T08:36:01;96271.50;;;12.27;98.05
47366;BME280;33105;47.964;7.982;2022-09-16T08:39:02;96281.44;;;12.13;97.47
47366;BME280;33105;47.964;7.982;2022-09-16T08:42:14;96282.66;;;11.97;97.04
47366;BME280;33105;47.964;7.982;2022-09-16T08:45:34;96289.16;;;12.06;97.04
47366;BME280;33105;47.964;7.982;2022-09-16T08:49:00;96284.78;;;12.05;96.87
47366;BME280;33105;47.964;7.982;2022-09-16T08:52:34;96293.22;;;12.13;97.35
47366;BME280;33105;47.964;7.982;2022-09-16T08:55:39;96290.94;;;11.81;96.55
47366;BME280;33105;47.964;7.982;2022-09-16T08:58:46;96293.00;;;12.10;97.66
47366;BME280;33105;47.964;7.982;2022-09-16T09:01:54;96293.53;;;12.12;97.26
47366;BME280;33105;47.964;7.982;2022-09-16T09:04:57;96294.22;;;11.73;96.11
47366;BME280;33105;47.964;7.982;2022-09-16T09:08:17;96294.94;;;11.99;97.35
47366;BME280;33105;47.964;7.982;2022-09-16T09:14:55;96300.00;;;11.77;96.80
47366;BME280;33105;47.964;7.982;2022-09-16T09:26:04;96286.91;;;12.18;97.19
47366;BME280;33105;47.964;7.982;2022-09-16T09:32:24;96287.66;;;12.29;97.51
47366;BME280;33105;47.964;7.982;2022-09-16T09:36:01;96290.28;;;12.05;96.11
47366;BME280;33105;47.964;7.982;2022-09-16T09:39:16;96294.50;;;12.31;97.62
47366;BME280;33105;47.964;7.982;2022-09-16T09:45:31;96293.97;;;12.24;96.45
47366;BME280;33105;47.964;7.982;2022-09-16T09:49:10;96303.34;;;12.13;95.59
47366;BME280;33105;47.964;7.982;2022-09-16T09:52:14;96306.84;;;11.64;94.92
47366;BME280;33105;47.964;7.982;2022-09-16T09:55:19;96305.47;;;11.67;95.52
47366;BME280;33105;47.964;7.982;2022-09-16T09:58:37;96301.63;;;11.83;96.53
47366;BME280;33105;47.964;7.982;2022-09-16T10:01:39;96309.75;;;11.93;96.69
47366;BME280;33105;47.964;7.982;2022-09-16T10:04:40;96319.19;;;11.62;94.34
47366;BME280;33105;47.964;7.982;2022-09-16T10:07:42;96312.22;;;11.89;96.25
47366;BME280;33105;47.964;7.982;2022-09-16T10:10:52;96320.72;;;11.88;95.14
47366;BME280;33105;47.964;7.982;2022-09-16T10:13:59;96311.28;;;12.14;96.50
47366;BME280;33105;47.964;7.982;2022-09-16T10:17:04;96313.41;;;12.27;96.84
47366;BME280;33105;47.964;7.982;2022-09-16T10:23:24;96310.31;;;12.39;95.37
47366;BME280;33105;47.964;7.982;2022-09-16T10:26:27;96296.94;;;12.67;95.62
47366;BME280;33105;47.964;7.982;2022-09-16T10:29:28;96304.22;;;12.86;95.95
47366;BME280;33105;47.964;7.982;2022-09-16T10:32:30;96305.88;;;12.04;92.65
47366;BME280;33105;47.964;7.982;2022-09-16T10:35:36;96304.75;;;12.54;95.99
47366;BME280;33105;47.964;7.982;2022-09-16T10:38:41;96306.03;;;12.23;93.92
47366;BME280;33105;47.964;7.982;2022-09-16T10:41:43;96291.44;;;12.72;96.05
47366;BME280;33105;47.964;7.982;2022-09-16T10:44:49;96292.28;;;12.67;92.58
47366;BME280;33105;47.964;7.982;2022-09-16T10:47:56;96295.13;;;12.57;90.23
47366;BME280;33105;47.964;7.982;2022-09-16T10:51:01;96305.25;;;12.17;93.59
47366;BME280;33105;47.964;7.982;2022-09-16T10:54:04;96300.69;;;12.42;95.60
47366;BME280;33105;47.964;7.982;2022-09-16T11:00:29;96305.28;;;12.12;94.69
47366;BME280;33105;47.964;7.982;2022-09-16T11:07:24;96310.94;;;11.67;94.39
47366;BME280;33105;47.964;7.982;2022-09-16T11:10:38;96318.03;;;11.83;96.17
47366;BME280;33105;47.964;7.982;2022-09-16T11:17:43;96319.16;;;12.26;95.34
47366;BME280;33105;47.964;7.982;2022-09-16T11:20:54;96320.09;;;12.11;95.26
47366;BME280;33105;47.964;7.982;2022-09-16T11:30:32;96322.25;;;12.58;94.79
47366;BME280;33105;47.964;7.982;2022-09-16T11:33:48;96323.44;;;11.98;91.21
47366;BME280;33105;47.964;7.982;2022-09-16T11:49:53;96328.16;;;12.37;96.26
47366;BME280;33105;47.964;7.982;2022-09-16T11:53:21;96329.88;;;12.22;94.41
47366;BME280;33105;47.964;7.982;2022-09-16T12:00:03;96325.50;;;12.16;95.71
47366;BME280;33105;47.964;7.982;2022-09-16T12:06:25;96334.09;;;12.49;95.52
47366;BME280;33105;47.964;7.982;2022-09-16T12:09:35;96340.16;;;12.41;95.14
47366;BME280;33105;47.964;7.982;2022-09-16T12:12:44;96323.69;;;12.46;94.81
47366;BME280;33105;47.964;7.982;2022-09-16T12:18:51;96309.63;;;12.91;94.74
47366;BME280;33105;47.964;7.982;2022-09-16T12:22:06;96315.22;;;12.81;92.95
47366;BME280;33105;47.964;7.982;2022-09-16T12:25:18;96313.19;;;12.92;94.32
47366;BME280;33105;47.964;7.982;2022-09-16T12:28:30;96328.75;;;12.68;94.04
47366;BME280;33105;47.964;7.982;2022-09-16T12:31:37;96339.75;;;12.13;91.70
47366;BME280;33105;47.964;7.982;2022-09-16T12:34:57;96343.19;;;12.39;94.35
47366;BME280;33105;47.964;7.982;2022-09-16T12:38:00;96337.47;;;12.36;93.85
47366;BME280;33105;47.964;7.982;2022-09-16T12:55:04;96331.94;;;12.41;92.84
47366;BME280;33105;47.964;7.982;2022-09-16T13:01:39;96341.56;;;11.84;92.62
47366;BME280;33105;47.964;7.982;2022-09-16T13:04:46;96340.41;;;12.00;93.62
47366;BME280;33105;47.964;7.982;2022-09-16T13:07:50;96340.13;;;12.02;93.86
47366;BME280;33105;47.964;7.982;2022-09-16T13:10:58;96335.91;;;12.19;94.80
47366;BME280;33105;47.964;7.982;2022-09-16T13:14:00;96323.28;;;12.23;93.61
47366;BME280;33105;47.964;7.982;2022-09-16T13:17:02;96330.53;;;11.99;93.05
47366;BME280;33105;47.964;7.982;2022-09-16T13:20:39;96320.22;;;11.86;90.05
47366;BME280;33105;47.964;7.982;2022-09-16T13:23:44;96326.56;;;12.25;94.15
47366;BME280;33105;47.964;7.982;2022-09-16T13:26:47;96318.34;;;12.25;94.18
47366;BME280;33105;47.964;7.982;2022-09-16T13:29:48;96322.69;;;12.37;94.46
47366;BME280;33105;47.964;7.982;2022-09-16T13:36:28;96325.78;;;12.20;94.81
47366;BME280;33105;47.964;7.982;2022-09-16T13:39:31;96322.50;;;12.13;95.03
47366;BME280;33105;47.964;7.982;2022-09-16T13:42:33;96330.25;;;12.06;95.18
47366;BME280;33105;47.964;7.982;2022-09-16T13:45:36;96326.06;;;12.13;95.67
47366;BME280;33105;47.964;7.982;2022-09-16T13:48:41;96327.66;;;12.24;95.40
47366;BME280;33105;47.964;7.982;2022-09-16T13:51:46;96319.97;;;12.32;95.09
47366;BME280;33105;47.964;7.982;2022-09-16T13:54:50;96330.34;;;12.35;95.49
47366;BME280;33105;47.964;7.982;2022-09-16T13:58:25;96332.59;;;12.27;95.42
47366;BME280;33105;47.964;7.982;2022-09-16T14:15:42;96330.06;;;11.72;91.49
47366;BME280;33105;47.964;7.982;2022-09-16T14:18:59;96336.91;;;11.69;93.09
47366;BME280;33105;47.964;7.982;2022-09-16T14:22:14;96329.53;;;11.80;95.06
47366;BME280;33105;47.964;7.982;2022-09-16T14:25:37;96335.00;;;11.80;95.17
47366;BME280;33105;47.964;7.982;2022-09-16T14:28:40;96331.25;;;11.55;94.61
47366;BME280;33105;47.964;7.982;2022-09-16T14:31:41;96331.41;;;11.89;95.69
47366;BME280;33105;47.964;7.982;2022-09-16T14:34:45;96337.47;;;11.86;95.55
47366;BME280;33105;47.964;7.982;2022-09-16T14:37:50;96335.81;;;11.85;95.41
47366;BME280;33105;47.964;7.982;2022-09-16T14:40:52;96336.97;;;11.54;94.10
47366;BME280;33105;47.964;7.982;2022-09-16T14:43:55;96336.38;;;11.67;95.05
47366;BME280;33105;47.964;7.982;2022-09-16T14:50:13;96336.97;;;11.59;95.86
47366;BME280;33105;47.964;7.982;2022-09-16T14:53:33;96339.09;;;11.72;96.05
47366;BME280;33105;47.964;7.982;2022-09-16T14:56:36;96341.63;;;11.58;95.21
47366;BME280;33105;47.964;7.982;2022-09-16T14:59:38;96326.88;;;11.49;94.98
47366;BME280;33105;47.964;7.982;2022-09-16T15:03:08;96337.19;;;11.83;96.63
47366;BME280;33105;47.964;7.982;2022-09-16T15:06:16;96331.44;;;11.84;96.27
47366;BME280;33105;47.964;7.982;2022-09-16T15:09:24;96340.59;;;11.34;93.49
47366;BME280;33105;47.964;7.982;2022-09-16T15:12:32;96336.16;;;11.53;95.39
47366;BME280;33105;47.964;7.982;2022-09-16T15:15:35;96332.53;;;11.73;95.35
47366;BME280;33105;47.964;7.982;2022-09-16T15:18:40;96333.34;;;11.84;96.16
47366;BME280;33105;47.964;7.982;2022-09-16T15:21:43;96339.59;;;11.95;96.62
47366;BME280;33105;47.964;7.982;2022-09-16T15:24:46;96344.38;;;11.53;94.61
47366;BME280;33105;47.964;7.982;2022-09-16T15:27:49;96346.22;;;11.68;95.66
47366;BME280;33105;47.964;7.982;2022-09-16T15:30:52;96337.75;;;11.80;95.46
47366;BME280;33105;47.964;7.982;2022-09-16T15:33:57;96332.81;;;11.77;94.69
47366;BME280;33105;47.964;7.982;2022-09-16T15:36:58;96333.00;;;11.96;96.13
47366;BME280;33105;47.964;7.982;2022-09-16T15:40:27;96339.44;;;11.61;94.53
47366;BME280;33105;47.964;7.982;2022-09-16T15:43:34;96336.28;;;11.98;96.31
47366;BME280;33105;47.964;7.982;2022-09-16T15:46:44;96326.81;;;11.80;94.78
47366;BME280;33105;47.964;7.982;2022-09-16T15:49:47;96327.81;;;11.94;95.73
47366;BME280;33105;47.964;7.982;2022-09-16T15:53:10;96337.22;;;11.78;94.44
47366;BME280;33105;47.964;7.982;2022-09-16T15:56:21;96332.81;;;11.87;96.03
47366;BME280;33105;47.964;7.982;2022-09-16T16:02:50;96319.66;;;11.74;95.08
47366;BME280;33105;47.964;7.982;2022-09-16T16:05:53;96327.91;;;11.69;95.01
47366;BME280;33105;47.964;7.982;2022-09-16T16:08:54;96326.53;;;11.66;95.88
47366;BME280;33105;47.964;7.982;2022-09-16T16:12:07;96321.59;;;11.78;96.57
47366;BME280;33105;47.964;7.982;2022-09-16T16:15:10;96331.97;;;11.86;96.75
47366;BME280;33105;47.964;7.982;2022-09-16T16:18:11;96329.81;;;11.68;96.50
47366;BME280;33105;47.964;7.982;2022-09-16T16:21:14;96334.47;;;11.83;96.72
47366;BME280;33105;47.964;7.982;2022-09-16T16:24:16;96331.44;;;11.69;96.24
47366;BME280;33105;47.964;7.982;2022-09-16T16:27:17;96334.81;;;11.41;95.70
47366;BME280;33105;47.964;7.982;2022-09-16T16:30:18;96335.84;;;11.65;96.62
47366;BME280;33105;47.964;7.982;2022-09-16T16:33:20;96330.63;;;11.74;96.94
47366;BME280;33105;47.964;7.982;2022-09-16T16:36:21;96342.78;;;11.32;95.45
47366;BME280;33105;47.964;7.982;2022-09-16T16:39:23;96339.13;;;11.67;97.26
47366;BME280;33105;47.964;7.982;2022-09-16T16:42:24;96341.59;;;11.79;96.97
47366;BME280;33105;47.964;7.982;2022-09-16T16:45:26;96346.75;;;11.75;96.58
47366;BME280;33105;47.964;7.982;2022-09-16T16:48:28;96344.84;;;11.76;97.04
47366;BME280;33105;47.964;7.982;2022-09-16T16:51:30;96342.53;;;11.18;95.27
47366;BME280;33105;47.964;7.982;2022-09-16T16:54:32;96341.66;;;11.43;96.58
47366;BME280;33105;47.964;7.982;2022-09-16T16:57:33;96338.34;;;11.56;96.92
47366;BME280;33105;47.964;7.982;2022-09-16T17:00:35;96333.44;;;11.53;96.90
47366;BME280;33105;47.964;7.982;2022-09-16T17:03:36;96336.72;;;11.45;96.80
47366;BME280;33105;47.964;7.982;2022-09-16T17:06:38;96337.03;;;11.34;96.40
47366;BME280;33105;47.964;7.982;2022-09-16T17:09:40;96330.69;;;11.48;97.31
47366;BME280;33105;47.964;7.982;2022-09-16T17:12:41;96336.44;;;11.52;97.28
47366;BME280;33105;47.964;7.982;2022-09-16T17:15:42;96341.63;;;11.58;97.36
47366;BME280;33105;47.964;7.982;2022-09-16T17:18:43;96347.06;;;11.64;97.60
47366;BME280;33105;47.964;7.982;2022-09-16T17:21:46;96347.91;;;11.59;97.61
47366;BME280;33105;47.964;7.982;2022-09-16T17:24:49;96342.72;;;11.63;97.58
47366;BME280;33105;47.964;7.982;2022-09-16T17:27:50;96341.16;;;11.31;96.08
47366;BME280;33105;47.964;7.982;2022-09-16T17:30:52;96347.19;;;11.08;95.59
47366;BME280;33105;47.964;7.982;2022-09-16T17:33:54;96345.56;;;11.12;96.25
47366;BME280;33105;47.964;7.982;2022-09-16T17:36:56;96342.81;;;11.07;96.47
47366;BME280;33105;47.964;7.982;2022-09-16T17:39:58;96340.09;;;11.07;97.09
47366;BME280;33105;47.964;7.982;2022-09-16T17:42:59;96340.91;;;10.72;96.01
47366;BME280;33105;47.964;7.982;2022-09-16T17:46:01;96344.44;;;10.47;95.45
47366;BME280;33105;47.964;7.982;2022-09-16T17:49:11;96351.28;;;10.49;96.10
47366;BME280;33105;47.964;7.982;2022-09-16T17:52:13;96345.56;;;10.76;97.64
47366;BME280;33105;47.964;7.982;2022-09-16T17:55:14;96349.66;;;10.69;96.86
47366;BME280;33105;47.964;7.982;2022-09-16T17:58:16;96350.75;;;10.78;97.32
47366;BME280;33105;47.964;7.982;2022-09-16T18:01:19;96353.50;;;10.88;97.73
47366;BME280;33105;47.964;7.982;2022-09-16T18:04:21;96348.56;;;10.80;97.04
47366;BME280;33105;47.964;7.982;2022-09-16T18:07:22;96352.41;;;10.84;97.45
47366;BME280;33105;47.964;7.982;2022-09-16T18:10:23;96351.56;;;10.58;96.17
47366;BME280;33105;47.964;7.982;2022-09-16T18:13:24;96349.91;;;10.52;96.61
47366;BME280;33105;47.964;7.982;2022-09-16T18:16:26;96342.00;;;10.50;97.10
47366;BME280;33105;47.964;7.982;2022-09-16T18:19:28;96340.63;;;10.43;96.68
47366;BME280;33105;47.964;7.982;2022-09-16T18:22:29;96342.25;;;10.44;96.55
47366;BME280;33105;47.964;7.982;2022-09-16T18:25:30;96355.66;;;10.66;97.51
47366;BME280;33105;47.964;7.982;2022-09-16T18:28:36;96381.63;;;10.58;97.10
47366;BME280;33105;47.964;7.982;2022-09-16T18:31:45;96392.81;;;10.56;97.41
47366;BME280;33105;47.964;7.982;2022-09-16T18:34:50;96393.63;;;10.67;97.62